createdAt,value
2022-10-13T00:00:50.417Z,99951.05
2022-10-13T00:02:55.299Z,99947.42
2022-10-13T00:04:59.910Z,99950.60
2022-10-13T00:07:05.226Z,99951.09
2022-10-13T00:09:09.883Z,99951.23
2022-10-13T00:11:17.959Z,99952.64
2022-10-13T00:13:22.651Z,99950.25
2022-10-13T00:15:27.265Z,99952.67
2022-10-13T00:17:31.908Z,99948.19
2022-10-13T00:19:36.608Z,99948.15
2022-10-13T00:21:41.839Z,99945.42
2022-10-13T00:23:46.892Z,99945.05
2022-10-13T00:25:54.350Z,99945.98
2022-10-13T00:28:00.247Z,99944.93
2022-10-13T00:30:11.157Z,99945.64
2022-10-13T00:32:17.349Z,99943.78
2022-10-13T00:34:22.297Z,99937.65
2022-10-13T00:36:27.298Z,99941.85
2022-10-13T00:38:31.999Z,99938.10
2022-10-13T00:40:44.740Z,99934.11
2022-10-13T00:42:49.443Z,99932.75
2022-10-13T00:45:19.871Z,99932.98
2022-10-13T00:47:25.795Z,99936.16
2022-10-13T00:49:30.901Z,99936.18
2022-10-13T00:51:39.454Z,99935.58
2022-10-13T00:53:46.874Z,99934.17
2022-10-13T00:55:53.325Z,99932.91
2022-10-13T00:58:05.413Z,99927.30
2022-10-13T01:00:12.580Z,99927.02
2022-10-13T01:02:17.735Z,99929.44
2022-10-13T01:04:26.258Z,99929.35
2022-10-13T01:06:31.814Z,99927.04
2022-10-13T01:08:36.539Z,99924.49
2022-10-13T01:10:52.442Z,99927.98
2022-10-13T01:13:05.470Z,99927.90
2022-10-13T01:15:17.346Z,99925.45
2022-10-13T01:17:28.725Z,99920.71
2022-10-13T01:19:55.104Z,99919.94
2022-10-13T01:22:08.591Z,99915.37
2022-10-13T01:24:46.744Z,99915.33
2022-10-13T01:27:12.816Z,99917.67
2022-10-13T01:29:38.819Z,99915.70
2022-10-13T01:31:50.533Z,99913.34
2022-10-13T01:34:03.994Z,99908.94
2022-10-13T01:36:21.079Z,99912.74
2022-10-13T01:38:33.762Z,99913.44
2022-10-13T01:40:44.282Z,99909.86
2022-10-13T01:42:58.767Z,99909.95
2022-10-13T01:45:04.466Z,99906.67
2022-10-13T01:47:11.584Z,99907.20
2022-10-13T01:49:19.291Z,99905.33
2022-10-13T01:51:26.564Z,99902.09
2022-10-13T01:53:31.808Z,99903.46
2022-10-13T01:55:36.499Z,99897.36
2022-10-13T01:57:43.093Z,99900.13
2022-10-13T01:59:48.168Z,99894.90
2022-10-13T02:02:03.345Z,99894.40
2022-10-13T02:04:20.923Z,99892.74
2022-10-13T02:06:31.205Z,99895.05
2022-10-13T02:08:45.198Z,99891.31
2022-10-13T02:10:57.425Z,99888.67
2022-10-13T02:13:04.588Z,99895.67
2022-10-13T02:15:13.977Z,99894.55
2022-10-13T02:17:19.488Z,99897.90
2022-10-13T02:19:24.763Z,99896.09
2022-10-13T02:21:30.630Z,99895.00
2022-10-13T02:23:38.102Z,99893.88
2022-10-13T02:25:43.549Z,99891.11
2022-10-13T02:27:48.325Z,99890.88
2022-10-13T02:29:56.841Z,99892.20
2022-10-13T02:32:05.313Z,99894.39
2022-10-13T02:34:10.365Z,99897.07
2022-10-13T02:36:14.994Z,99889.77
2022-10-13T02:38:19.688Z,99888.25
2022-10-13T02:40:27.312Z,99888.23
2022-10-13T02:42:31.962Z,99888.30
2022-10-13T02:44:37.019Z,99887.64
2022-10-13T02:46:41.743Z,99891.05
2022-10-13T02:48:46.376Z,99891.23
2022-10-13T02:50:51.086Z,99886.10
2022-10-13T02:52:55.788Z,99890.29
2022-10-13T02:55:00.649Z,99886.21
2022-10-13T02:57:05.441Z,99883.13
2022-10-13T02:59:10.105Z,99881.32
2022-10-13T03:01:15.630Z,99881.11
2022-10-13T03:03:20.421Z,99883.38
2022-10-13T03:05:26.908Z,99879.47
2022-10-13T03:07:31.594Z,99880.77
2022-10-13T03:09:36.333Z,99882.76
2022-10-13T03:11:41.043Z,99882.70
2022-10-13T03:13:45.772Z,99879.44
2022-10-13T03:15:50.709Z,99880.59
2022-10-13T03:17:56.852Z,99878.93
2022-10-13T03:20:01.497Z,99874.92
2022-10-13T03:22:06.201Z,99872.28
2022-10-13T03:24:10.943Z,99872.72
2022-10-13T03:26:15.656Z,99875.31
2022-10-13T03:28:20.663Z,99873.08
2022-10-13T03:30:29.140Z,99873.82
2022-10-13T03:32:33.765Z,99872.38
2022-10-13T03:34:38.511Z,99874.10
2022-10-13T03:36:43.192Z,99869.77
2022-10-13T03:38:47.886Z,99871.91
2022-10-13T03:40:52.716Z,99875.16
2022-10-13T03:42:57.356Z,99867.61
2022-10-13T03:45:02.089Z,99867.46
2022-10-13T03:47:06.931Z,99869.38
2022-10-13T03:49:12.772Z,99868.02
2022-10-13T03:51:19.569Z,99870.34
2022-10-13T03:53:24.572Z,99873.52
2022-10-13T03:55:29.232Z,99876.33
2022-10-13T03:57:33.935Z,99873.09
2022-10-13T03:59:39.042Z,99874.32
2022-10-13T04:01:45.452Z,99875.23
2022-10-13T04:03:50.797Z,99872.56
2022-10-13T04:05:55.460Z,99875.56
2022-10-13T04:08:00.112Z,99873.08
2022-10-13T04:10:10.198Z,99870.93
2022-10-13T04:12:20.669Z,99871.11
2022-10-13T04:14:25.905Z,99871.78
2022-10-13T04:16:35.760Z,99868.93
2022-10-13T04:18:44.849Z,99871.05
2022-10-13T04:20:49.851Z,99871.41
2022-10-13T04:22:54.512Z,99869.43
2022-10-13T04:24:59.156Z,99870.42
2022-10-13T04:27:04.768Z,99871.51
2022-10-13T04:29:11.127Z,99874.80
2022-10-13T04:31:16.592Z,99874.52
2022-10-13T04:33:21.458Z,99879.98
2022-10-13T04:35:26.271Z,99880.24
2022-10-13T04:37:30.901Z,99879.95
2022-10-13T04:39:35.667Z,99880.48
2022-10-13T04:41:40.354Z,99884.93
2022-10-13T04:43:47.181Z,99883.29
2022-10-13T04:45:52.031Z,99885.34
2022-10-13T04:47:56.722Z,99888.94
2022-10-13T04:50:01.422Z,99884.69
2022-10-13T04:52:06.214Z,99887.83
2022-10-13T04:54:10.968Z,99888.02
2022-10-13T04:56:17.379Z,99889.17
2022-10-13T04:58:22.456Z,99884.41
2022-10-13T05:00:27.175Z,99883.17
2022-10-13T05:02:31.933Z,99882.13
2022-10-13T05:04:36.678Z,99884.15
2022-10-13T05:07:05.212Z,99881.43
2022-10-13T05:09:14.389Z,99877.73
2022-10-13T05:11:19.585Z,99879.86
2022-10-13T05:13:24.759Z,99883.61
2022-10-13T05:15:29.520Z,99881.38
2022-10-13T05:17:35.548Z,99883.77
2022-10-13T05:19:43.703Z,99883.55
2022-10-13T05:21:48.337Z,99886.98
2022-10-13T05:23:53.775Z,99886.77
2022-10-13T05:26:00.656Z,99889.60
2022-10-13T05:28:06.816Z,99883.95
2022-10-13T05:30:13.411Z,99886.83
2022-10-13T05:32:18.414Z,99885.60
2022-10-13T05:34:23.312Z,99888.92
2022-10-13T05:36:29.646Z,99887.98
2022-10-13T05:38:34.514Z,99886.02
2022-10-13T05:40:39.264Z,99883.45
2022-10-13T05:42:43.897Z,99888.81
2022-10-13T05:44:48.886Z,99890.33
2022-10-13T05:46:53.781Z,99890.55
2022-10-13T05:48:58.685Z,99893.92
2022-10-13T05:51:09.633Z,99894.52
2022-10-13T05:53:14.393Z,99893.87
2022-10-13T05:55:20.025Z,99893.98
2022-10-13T05:57:27.980Z,99897.64
2022-10-13T05:59:36.988Z,99898.85
2022-10-13T06:01:42.327Z,99903.09
2022-10-13T06:03:49.814Z,99903.42
2022-10-13T06:05:54.587Z,99903.75
2022-10-13T06:07:59.299Z,99905.29
2022-10-13T06:10:04.385Z,99911.05
2022-10-13T06:12:10.076Z,99912.45
2022-10-13T06:14:14.865Z,99910.64
2022-10-13T06:16:19.675Z,99908.98
2022-10-13T06:18:24.355Z,99910.59
2022-10-13T06:20:29.391Z,99911.98
2022-10-13T06:22:34.644Z,99914.65
2022-10-13T06:24:39.345Z,99919.04
2022-10-13T06:26:46.513Z,99916.54
2022-10-13T06:28:54.441Z,99916.88
2022-10-13T06:31:03.627Z,99915.50
2022-10-13T06:33:08.222Z,99915.75
2022-10-13T06:35:13.662Z,99912.79
2022-10-13T06:37:19.639Z,99913.08
2022-10-13T06:39:26.826Z,99916.20
2022-10-13T06:41:31.453Z,99920.36
2022-10-13T06:43:40.319Z,99918.94
2022-10-13T06:45:47.704Z,99920.63
2022-10-13T06:47:54.592Z,99915.27
2022-10-13T06:49:59.363Z,99910.96
2022-10-13T06:52:05.306Z,99913.52
2022-10-13T06:54:09.955Z,99910.17
2022-10-13T06:56:14.931Z,99911.13
2022-10-13T06:58:19.710Z,99905.73
2022-10-13T07:00:24.445Z,99907.80
2022-10-13T07:02:29.251Z,99906.66
2022-10-13T07:04:33.858Z,99906.16
2022-10-13T07:06:38.490Z,99903.39
2022-10-13T07:08:43.282Z,99908.32
2022-10-13T07:10:47.900Z,99914.27
2022-10-13T07:12:52.563Z,99911.31
2022-10-13T07:14:57.194Z,99909.46
2022-10-13T07:17:01.828Z,99909.09
2022-10-13T07:19:06.485Z,99909.95
2022-10-13T07:21:11.185Z,99906.98
2022-10-13T07:23:16.274Z,99907.16
2022-10-13T07:25:21.037Z,99907.86
2022-10-13T07:27:25.878Z,99907.55
2022-10-13T07:29:30.678Z,99905.81
2022-10-13T07:31:35.394Z,99910.23
2022-10-13T07:33:40.672Z,99907.47
2022-10-13T07:35:45.487Z,99905.74
2022-10-13T07:37:52.013Z,99902.44
2022-10-13T07:39:56.711Z,99894.08
2022-10-13T07:42:03.059Z,99889.52
2022-10-13T07:44:08.161Z,99892.02
2022-10-13T07:46:13.706Z,99889.36
2022-10-13T07:48:18.444Z,99890.27
2022-10-13T07:50:23.537Z,99893.34
2022-10-13T07:52:28.262Z,99890.65
2022-10-13T07:54:32.966Z,99888.52
2022-10-13T07:56:37.684Z,99889.45
2022-10-13T07:58:44.198Z,99888.17
2022-10-13T08:00:57.262Z,99887.16
2022-10-13T08:03:03.462Z,99888.59
2022-10-13T08:05:09.026Z,99889.36
2022-10-13T08:07:13.716Z,99890.27
2022-10-13T08:09:18.386Z,99887.91
2022-10-13T08:11:23.037Z,99890.60
2022-10-13T08:13:27.830Z,99889.86
2022-10-13T08:15:32.456Z,99890.43
2022-10-13T08:17:37.097Z,99888.85
2022-10-13T08:19:41.747Z,99892.39
2022-10-13T08:22:01.860Z,99891.17
2022-10-13T08:24:10.213Z,99885.52
2022-10-13T08:26:21.112Z,99885.37
2022-10-13T08:28:27.766Z,99887.00
2022-10-13T08:30:32.665Z,99884.09
2022-10-13T08:32:40.219Z,99883.35
2022-10-13T08:34:44.876Z,99880.46
2022-10-13T08:36:49.622Z,99883.23
2022-10-13T08:38:54.236Z,99879.74
2022-10-13T08:40:58.962Z,99882.50
2022-10-13T08:43:07.217Z,99882.86
2022-10-13T08:45:40.313Z,99881.89
2022-10-13T08:47:46.654Z,99883.11
2022-10-13T08:49:54.350Z,99886.95
2022-10-13T08:52:05.459Z,99888.44
2022-10-13T08:54:11.949Z,99887.78
2022-10-13T08:56:21.728Z,99886.67
2022-10-13T08:58:29.094Z,99884.09
2022-10-13T09:00:33.843Z,99884.47
2022-10-13T09:02:40.055Z,99883.93
2022-10-13T09:04:49.776Z,99881.81
2022-10-13T09:06:58.732Z,99881.20
2022-10-13T09:09:05.526Z,99877.98
2022-10-13T09:11:12.995Z,99875.45
2022-10-13T09:13:18.622Z,99880.34
2022-10-13T09:15:23.357Z,99878.70
2022-10-13T09:17:29.338Z,99879.08
2022-10-13T09:19:35.325Z,99877.64
2022-10-13T09:21:40.546Z,99877.36
2022-10-13T09:23:45.308Z,99874.35
2022-10-13T09:25:51.787Z,99874.73
2022-10-13T09:27:58.752Z,99873.83
2022-10-13T09:30:26.870Z,99874.67
2022-10-13T09:32:36.902Z,99873.77
2022-10-13T09:34:41.661Z,99876.23
2022-10-13T09:37:00.787Z,99870.58
2022-10-13T09:39:12.807Z,99868.33
2022-10-13T09:41:21.691Z,99872.20
2022-10-13T09:43:31.888Z,99871.21
2022-10-13T09:45:36.703Z,99868.94
2022-10-13T09:47:41.734Z,99870.60
2022-10-13T09:49:57.871Z,99867.28
2022-10-13T09:52:04.526Z,99867.33
2022-10-13T09:54:27.830Z,99866.67
2022-10-13T09:56:40.748Z,99867.92
2022-10-13T09:58:51.631Z,99863.50
2022-10-13T10:00:57.711Z,99864.11
2022-10-13T10:03:06.304Z,99865.68
2022-10-13T10:05:22.199Z,99864.45
2022-10-13T10:07:32.679Z,99868.84
2022-10-13T10:09:41.380Z,99867.92
2022-10-13T10:11:50.202Z,99867.10
2022-10-13T10:13:55.487Z,99862.69
2022-10-13T10:16:07.437Z,99865.38
2022-10-13T10:18:17.726Z,99865.66
2022-10-13T10:20:43.505Z,99862.16
2022-10-13T10:22:56.901Z,99858.86
2022-10-13T10:25:10.669Z,99860.33
2022-10-13T10:27:21.728Z,99860.29
2022-10-13T10:29:45.789Z,99861.70
2022-10-13T10:32:11.835Z,99856.02
2022-10-13T10:34:36.383Z,99857.22
2022-10-13T10:36:49.830Z,99855.58
2022-10-13T10:38:58.599Z,99858.05
2022-10-13T10:41:12.566Z,99854.05
2022-10-13T10:43:41.305Z,99853.89
2022-10-13T10:45:49.085Z,99855.17
2022-10-13T10:47:57.828Z,99854.05
2022-10-13T10:50:08.401Z,99856.05
2022-10-13T10:52:32.924Z,99855.33
2022-10-13T10:54:51.770Z,99850.07
2022-10-13T10:57:00.676Z,99845.47
2022-10-13T10:59:16.841Z,99843.48
2022-10-13T11:01:36.346Z,99841.04
2022-10-13T11:03:50.813Z,99838.35
2022-10-13T11:06:20.876Z,99837.70
2022-10-13T11:08:30.976Z,99836.35
2022-10-13T11:10:35.702Z,99831.98
2022-10-13T11:13:20.311Z,99830.00
2022-10-13T11:15:31.544Z,99825.40
2022-10-13T11:17:38.041Z,99822.83
2022-10-13T11:19:42.934Z,99822.08
2022-10-13T11:22:15.109Z,99818.70
2022-10-13T11:24:46.819Z,99817.27
2022-10-13T11:26:52.849Z,99812.88
2022-10-13T11:28:57.892Z,99811.13
2022-10-13T11:31:25.968Z,99810.20
2022-10-13T11:33:53.962Z,99808.27
2022-10-13T11:35:58.642Z,99803.98
2022-10-13T11:38:44.127Z,99804.55
2022-10-13T11:41:09.424Z,99796.17
2022-10-13T11:43:34.719Z,99793.93
2022-10-13T11:46:05.329Z,99788.55
2022-10-13T11:48:32.360Z,99781.49
2022-10-13T11:50:42.559Z,99780.59
2022-10-13T11:53:02.166Z,99783.23
2022-10-13T11:55:13.744Z,99777.29
2022-10-13T11:57:22.799Z,99767.41
2022-10-13T11:59:29.126Z,99764.87
2022-10-13T12:01:33.823Z,99761.89
2022-10-13T12:03:41.019Z,99759.20
2022-10-13T12:05:50.381Z,99756.83
2022-10-13T12:07:58.701Z,99754.17
2022-10-13T12:10:06.032Z,99751.56
2022-10-13T12:12:16.244Z,99753.42
2022-10-13T12:14:26.259Z,99746.48
2022-10-13T12:16:30.894Z,99749.62
2022-10-13T12:18:37.257Z,99742.88
2022-10-13T12:20:41.875Z,99742.09
2022-10-13T12:22:50.622Z,99735.89
2022-10-13T12:25:04.064Z,99735.85
2022-10-13T12:27:20.395Z,99729.02
2022-10-13T12:29:27.050Z,99725.13
2022-10-13T12:31:40.867Z,99724.19
2022-10-13T12:33:51.584Z,99720.61
2022-10-13T12:35:56.574Z,99719.62
2022-10-13T12:38:06.099Z,99720.60
2022-10-13T12:40:19.056Z,99721.20
2022-10-13T12:42:28.634Z,99718.64
2022-10-13T12:44:34.271Z,99719.61
2022-10-13T12:46:41.262Z,99716.95
2022-10-13T12:48:45.998Z,99719.65
2022-10-13T12:50:50.724Z,99718.70
2022-10-13T12:53:03.205Z,99716.36
2022-10-13T12:55:19.472Z,99714.45
2022-10-13T12:57:31.501Z,99713.05
2022-10-13T12:59:42.631Z,99715.73
2022-10-13T13:01:52.411Z,99715.55
2022-10-13T13:03:59.879Z,99715.28
2022-10-13T13:06:21.654Z,99717.09
2022-10-13T13:08:28.138Z,99716.37
2022-10-13T13:10:32.896Z,99712.53
2022-10-13T13:12:37.970Z,99706.61
2022-10-13T13:14:48.925Z,99707.64
2022-10-13T13:17:17.362Z,99702.52
2022-10-13T13:19:24.871Z,99701.67
2022-10-13T13:21:29.482Z,99698.20
2022-10-13T13:23:34.360Z,99697.88
2022-10-13T13:25:41.121Z,99697.47
2022-10-13T13:27:45.797Z,99697.39
2022-10-13T13:29:54.983Z,99696.79
2022-10-13T13:31:59.588Z,99694.76
2022-10-13T13:34:04.227Z,99692.85
2022-10-13T13:36:16.121Z,99692.00
2022-10-13T13:38:21.550Z,99689.16
2022-10-13T13:40:28.679Z,99686.30
2022-10-13T13:42:33.412Z,99685.35
2022-10-13T13:44:38.112Z,99684.04
2022-10-13T13:46:42.762Z,99682.23
2022-10-13T13:48:47.544Z,99680.48
2022-10-13T13:50:52.255Z,99682.05
2022-10-13T13:52:57.041Z,99675.77
2022-10-13T13:55:01.704Z,99676.02
2022-10-13T13:57:06.500Z,99676.02
2022-10-13T13:59:11.689Z,99678.35
2022-10-13T14:01:16.478Z,99674.27
2022-10-13T14:03:21.264Z,99672.67
2022-10-13T14:05:26.195Z,99668.06
2022-10-13T14:07:30.840Z,99667.80
2022-10-13T14:09:35.767Z,99669.34
2022-10-13T14:11:40.316Z,99668.58
2022-10-13T14:13:47.887Z,99663.57
2022-10-13T14:16:03.481Z,99663.52
2022-10-13T14:18:08.367Z,99660.73
2022-10-13T14:20:13.530Z,99658.23
2022-10-13T14:22:19.628Z,99657.89
2022-10-13T14:24:24.324Z,99653.17
2022-10-13T14:26:29.000Z,99648.52
2022-10-13T14:28:33.664Z,99647.98
2022-10-13T14:30:40.810Z,99648.73
2022-10-13T14:32:45.468Z,99648.16
2022-10-13T14:34:50.115Z,99648.41
2022-10-13T14:36:54.872Z,99647.65
2022-10-13T14:38:59.731Z,99641.98
2022-10-13T14:41:05.925Z,99637.30
2022-10-13T14:43:10.522Z,99632.31
2022-10-13T14:45:15.230Z,99632.42
2022-10-13T14:47:20.047Z,99637.06
2022-10-13T14:49:24.807Z,99635.45
2022-10-13T14:51:29.460Z,99632.52
2022-10-13T14:53:36.331Z,99631.20
2022-10-13T14:55:40.964Z,99629.51
2022-10-13T14:57:45.579Z,99630.30
2022-10-13T14:59:50.899Z,99627.97
2022-10-13T15:01:55.479Z,99628.52
2022-10-13T15:04:00.275Z,99627.50
2022-10-13T15:06:05.558Z,99623.21
2022-10-13T15:08:10.242Z,99623.02
2022-10-13T15:10:14.964Z,99621.96
2022-10-13T15:12:19.930Z,99626.04
2022-10-13T15:14:25.084Z,99624.86
2022-10-13T15:16:33.515Z,99622.13
2022-10-13T15:18:38.169Z,99628.57
2022-10-13T15:20:46.847Z,99630.21
2022-10-13T15:22:51.563Z,99631.02
2022-10-13T15:24:56.404Z,99626.70
2022-10-13T15:27:01.092Z,99628.47
2022-10-13T15:29:07.590Z,99626.55
2022-10-13T15:31:12.878Z,99624.05
2022-10-13T15:33:20.581Z,99620.27
2022-10-13T15:35:28.966Z,99620.48
2022-10-13T15:37:33.675Z,99621.45
2022-10-13T15:39:38.831Z,99618.36
2022-10-13T15:41:43.494Z,99617.70
2022-10-13T15:43:48.285Z,99616.96
2022-10-13T15:45:59.387Z,99613.96
2022-10-13T15:48:04.955Z,99612.70
2022-10-13T15:50:10.671Z,99612.71
2022-10-13T15:52:15.453Z,99615.81
2022-10-13T15:54:21.900Z,99617.04
2022-10-13T15:56:26.567Z,99618.61
2022-10-13T15:58:31.257Z,99620.05
2022-10-13T16:00:35.967Z,99616.36
2022-10-13T16:02:41.193Z,99615.93
2022-10-13T16:04:45.856Z,99610.95
2022-10-13T16:06:50.534Z,99614.38
2022-10-13T16:08:55.269Z,99608.27
2022-10-13T16:11:00.057Z,99610.02
2022-10-13T16:13:04.697Z,99606.30
2022-10-13T16:15:10.800Z,99612.91
2022-10-13T16:17:15.516Z,99614.14
2022-10-13T16:19:20.297Z,99614.98
2022-10-13T16:21:25.935Z,99615.89
2022-10-13T16:23:30.677Z,99613.66
2022-10-13T16:25:38.404Z,99617.48
2022-10-13T16:27:44.613Z,99618.50
2022-10-13T16:29:49.565Z,99618.19
2022-10-13T16:31:54.272Z,99616.92
2022-10-13T16:33:59.006Z,99616.97
2022-10-13T16:36:08.856Z,99618.72
2022-10-13T16:38:14.691Z,99612.52
2022-10-13T16:40:19.394Z,99613.52
2022-10-13T16:42:24.089Z,99611.69
2022-10-13T16:44:28.771Z,99613.77
2022-10-13T16:46:33.395Z,99615.30
2022-10-13T16:48:38.064Z,99614.54
2022-10-13T16:50:42.974Z,99615.69
2022-10-13T16:52:47.947Z,99612.66
2022-10-13T16:54:52.619Z,99618.53
2022-10-13T16:56:57.310Z,99619.45
2022-10-13T16:59:04.163Z,99624.36
2022-10-13T17:01:13.759Z,99626.93
2022-10-13T17:03:18.656Z,99625.67
2022-10-13T17:05:25.630Z,99625.10
2022-10-13T17:07:32.124Z,99624.47
2022-10-13T17:09:37.228Z,99627.35
2022-10-13T17:11:41.891Z,99624.55
2022-10-13T17:13:46.893Z,99623.38
2022-10-13T17:15:53.169Z,99618.56
2022-10-13T17:18:00.386Z,99620.23
2022-10-13T17:20:06.060Z,99622.45
2022-10-13T17:22:11.739Z,99623.77
2022-10-13T17:24:18.727Z,99619.51
2022-10-13T17:26:29.304Z,99620.25
2022-10-13T17:28:36.479Z,99617.54
2022-10-13T17:30:42.932Z,99620.34
2022-10-13T17:32:48.181Z,99621.11
2022-10-13T17:34:54.563Z,99620.79
2022-10-13T17:37:00.512Z,99620.42
2022-10-13T17:39:08.707Z,99617.87
2022-10-13T17:41:19.248Z,99621.08
2022-10-13T17:43:28.551Z,99620.46
2022-10-13T17:45:35.605Z,99624.30
2022-10-13T17:47:47.809Z,99620.15
2022-10-13T17:49:53.620Z,99620.13
2022-10-13T17:52:01.892Z,99616.20
2022-10-13T17:54:11.627Z,99611.23
2022-10-13T17:56:23.640Z,99610.66
2022-10-13T17:58:38.203Z,99611.09
2022-10-13T18:01:11.422Z,99609.17
2022-10-13T18:03:09.339Z,99607.63
2022-10-13T18:05:14.895Z,99608.79
2022-10-13T18:07:19.945Z,99607.46
2022-10-13T18:09:29.959Z,99607.15
2022-10-13T18:11:35.643Z,99607.31
2022-10-13T18:13:41.532Z,99602.28
2022-10-13T18:15:46.991Z,99603.82
2022-10-13T18:17:54.603Z,99601.46
2022-10-13T18:20:02.652Z,99601.08
2022-10-13T18:22:09.399Z,99603.71
2022-10-13T18:24:18.207Z,99603.67
2022-10-13T18:26:25.587Z,99607.85
2022-10-13T18:28:34.494Z,99604.50
2022-10-13T18:30:40.861Z,99607.17
2022-10-13T18:32:48.665Z,99604.40
2022-10-13T18:34:58.447Z,99609.73
2022-10-13T18:37:04.520Z,99605.40
2022-10-13T18:39:14.619Z,99604.08
2022-10-13T18:41:25.910Z,99608.89
2022-10-13T18:43:32.968Z,99611.55
2022-10-13T18:45:39.116Z,99608.95
2022-10-13T18:47:45.491Z,99609.70
2022-10-13T18:49:51.966Z,99614.10
2022-10-13T18:51:58.303Z,99612.98
2022-10-13T18:54:06.789Z,99617.67
2022-10-13T18:56:16.516Z,99615.81
2022-10-13T18:58:23.851Z,99612.69
2022-10-13T19:00:31.918Z,99611.77
2022-10-13T19:02:37.321Z,99614.39
2022-10-13T19:04:45.127Z,99610.70
2022-10-13T19:06:53.633Z,99608.11
2022-10-13T19:09:02.614Z,99607.26
2022-10-13T19:11:21.141Z,99604.83
2022-10-13T19:13:26.993Z,99600.41
2022-10-13T19:15:33.699Z,99601.23
2022-10-13T19:17:39.926Z,99601.30
2022-10-13T19:19:46.484Z,99601.88
2022-10-13T19:21:52.418Z,99609.86
2022-10-13T19:24:01.066Z,99611.00
2022-10-13T19:26:14.845Z,99615.23
2022-10-13T19:28:22.658Z,99609.27
2022-10-13T19:30:34.383Z,99608.73
2022-10-13T19:32:42.123Z,99606.59
2022-10-13T19:34:49.982Z,99613.50
2022-10-13T19:37:00.590Z,99614.65
2022-10-13T19:39:13.382Z,99613.83
2022-10-13T19:41:20.369Z,99607.23
2022-10-13T19:43:28.875Z,99606.16
2022-10-13T19:45:46.185Z,99604.85
2022-10-13T19:47:54.681Z,99603.48
2022-10-13T19:50:01.594Z,99604.61
2022-10-13T19:52:07.889Z,99601.35
2022-10-13T19:54:19.375Z,99596.89
2022-10-13T19:56:37.326Z,99593.40
2022-10-13T19:58:46.138Z,99592.88
2022-10-13T20:00:52.247Z,99590.18
2022-10-13T20:03:00.235Z,99585.91
2022-10-13T20:05:08.935Z,99585.70
2022-10-13T20:07:16.059Z,99581.26
2022-10-13T20:09:21.422Z,99580.21
2022-10-13T20:11:26.179Z,99582.86
2022-10-13T20:13:31.656Z,99579.78
2022-10-13T20:15:43.123Z,99588.01
2022-10-13T20:17:48.460Z,99584.21
2022-10-13T20:19:53.527Z,99587.72
2022-10-13T20:21:58.235Z,99585.01
2022-10-13T20:24:07.694Z,99583.95
2022-10-13T20:26:13.894Z,99583.05
2022-10-13T20:28:19.120Z,99582.55
2022-10-13T20:30:24.066Z,99582.81
2022-10-13T20:32:28.846Z,99582.93
2022-10-13T20:34:33.555Z,99585.79
2022-10-13T20:36:39.181Z,99583.55
2022-10-13T20:38:44.193Z,99588.26
2022-10-13T20:40:48.854Z,99588.42
2022-10-13T20:42:53.900Z,99587.61
2022-10-13T20:44:58.578Z,99586.61
2022-10-13T20:47:03.205Z,99589.21
2022-10-13T20:49:11.562Z,99583.77
2022-10-13T20:51:19.454Z,99587.69
2022-10-13T20:53:24.145Z,99589.39
2022-10-13T20:55:30.097Z,99587.80
2022-10-13T20:57:34.683Z,99589.95
2022-10-13T20:59:39.672Z,99590.12
2022-10-13T21:01:44.886Z,99589.92
2022-10-13T21:03:52.736Z,99588.66
2022-10-13T21:05:58.078Z,99585.51
2022-10-13T21:08:02.823Z,99582.81
2022-10-13T21:10:09.104Z,99582.85
2022-10-13T21:12:14.107Z,99580.08
2022-10-13T21:14:18.770Z,99576.92
2022-10-13T21:16:25.179Z,99577.58
2022-10-13T21:18:29.956Z,99575.00
2022-10-13T21:20:35.981Z,99570.80
2022-10-13T21:22:40.683Z,99566.54
2022-10-13T21:24:47.643Z,99561.42
2022-10-13T21:26:52.256Z,99563.59
2022-10-13T21:29:00.676Z,99560.54
2022-10-13T21:31:07.041Z,99558.34
2022-10-13T21:33:12.059Z,99555.98
2022-10-13T21:35:17.477Z,99561.50
2022-10-13T21:37:22.845Z,99555.61
2022-10-13T21:39:27.863Z,99556.54
2022-10-13T21:41:32.612Z,99558.34
2022-10-13T21:43:37.455Z,99556.67
2022-10-13T21:45:42.178Z,99556.16
2022-10-13T21:47:46.822Z,99559.29
2022-10-13T21:49:52.914Z,99559.89
2022-10-13T21:51:57.625Z,99558.19
2022-10-13T21:54:04.463Z,99559.10
2022-10-13T21:56:11.025Z,99555.96
2022-10-13T21:58:15.635Z,99558.88
2022-10-13T22:00:20.688Z,99554.09
2022-10-13T22:02:25.363Z,99553.96
2022-10-13T22:04:30.027Z,99554.31
2022-10-13T22:06:34.858Z,99551.02
2022-10-13T22:08:40.933Z,99547.80
2022-10-13T22:11:00.464Z,99542.42
2022-10-13T22:13:05.162Z,99542.21
2022-10-13T22:15:13.237Z,99542.15
2022-10-13T22:17:18.085Z,99542.36
2022-10-13T22:19:22.912Z,99538.86
2022-10-13T22:21:29.568Z,99535.42
2022-10-13T22:23:34.395Z,99534.23
2022-10-13T22:25:44.727Z,99534.91
2022-10-13T22:27:49.361Z,99528.81
2022-10-13T22:29:54.095Z,99528.08
2022-10-13T22:31:59.212Z,99526.30
2022-10-13T22:34:04.388Z,99527.82
2022-10-13T22:36:11.951Z,99533.09
2022-10-13T22:38:16.812Z,99533.39
2022-10-13T22:40:21.434Z,99529.30
2022-10-13T22:42:26.361Z,99526.94
2022-10-13T22:44:31.462Z,99526.82
2022-10-13T22:46:39.529Z,99527.70
2022-10-13T22:48:48.457Z,99528.38
2022-10-13T22:50:53.150Z,99528.77
2022-10-13T22:52:57.790Z,99529.55
2022-10-13T22:55:02.444Z,99529.79
2022-10-13T22:57:09.300Z,99528.31
2022-10-13T22:59:14.134Z,99528.48
2022-10-13T23:01:19.464Z,99530.25
2022-10-13T23:03:24.248Z,99530.88
2022-10-13T23:05:30.267Z,99533.50
2022-10-13T23:07:34.943Z,99530.00
2022-10-13T23:09:39.760Z,99530.68
2022-10-13T23:11:44.515Z,99528.45
2022-10-13T23:13:56.120Z,99529.64
2022-10-13T23:16:05.641Z,99525.80
2022-10-13T23:18:11.939Z,99519.75
2022-10-13T23:20:16.757Z,99518.98
2022-10-13T23:22:21.498Z,99514.25
2022-10-13T23:24:27.410Z,99507.12
2022-10-13T23:26:32.570Z,99512.48
2022-10-13T23:28:37.538Z,99509.35
2022-10-13T23:30:42.315Z,99508.61
2022-10-13T23:32:47.118Z,99508.70
2022-10-13T23:34:51.908Z,99507.46
2022-10-13T23:36:57.340Z,99509.84
2022-10-13T23:39:04.045Z,99513.64
2022-10-13T23:41:11.282Z,99510.63
2022-10-13T23:43:16.251Z,99514.16
2022-10-13T23:45:21.275Z,99515.14
2022-10-13T23:47:26.171Z,99519.45
2022-10-13T23:49:30.980Z,99514.73
2022-10-13T23:51:35.824Z,99512.60
2022-10-13T23:53:41.741Z,99508.83
2022-10-13T23:55:46.716Z,99511.67
2022-10-13T23:57:51.461Z,99513.15
2022-10-13T23:59:56.307Z,99515.04
